sensor_id;sensor_type;location;lat;lon;timestamp;temperature;humidity
3548;DHT22;1788;49.400;11.092;2022-12-18T00:01:34;-6.50;50.00
3548;DHT22;1788;49.400;11.092;2022-12-18T00:04:02;-6.50;50.00
3548;DHT22;1788;49.400;11.092;2022-12-18T00:06:28;-6.50;49.90
3548;DHT22;1788;49.400;11.092;2022-12-18T00:08:56;-6.60;49.80
3548;DHT22;1788;49.400;11.092;2022-12-18T00:11:23;-6.60;49.80
3548;DHT22;1788;49.400;11.092;2022-12-18T00:13:50;-6.60;49.50
3548;DHT22;1788;49.400;11.092;2022-12-18T00:16:17;-6.60;49.80
3548;DHT22;1788;49.400;11.092;2022-12-18T00:18:44;-6.70;49.80
3548;DHT22;1788;49.400;11.092;2022-12-18T00:21:11;-6.70;49.70
3548;DHT22;1788;49.400;11.092;2022-12-18T00:23:37;-6.70;49.80
3548;DHT22;1788;49.400;11.092;2022-12-18T00:26:05;-6.80;49.70
3548;DHT22;1788;49.400;11.092;2022-12-18T00:28:31;-6.80;49.70
3548;DHT22;1788;49.400;11.092;2022-12-18T00:33:24;-6.80;49.80
3548;DHT22;1788;49.400;11.092;2022-12-18T00:35:51;-6.90;49.70
3548;DHT22;1788;49.400;11.092;2022-12-18T00:38:17;-6.90;49.70
3548;DHT22;1788;49.400;11.092;2022-12-18T00:40:44;-6.90;49.70
3548;DHT22;1788;49.400;11.092;2022-12-18T00:43:11;-7.00;49.60
3548;DHT22;1788;49.400;11.092;2022-12-18T00:45:37;-7.00;49.60
3548;DHT22;1788;49.400;11.092;2022-12-18T00:48:04;-7.00;49.60
3548;DHT22;1788;49.400;11.092;2022-12-18T00:50:31;-7.00;49.70
3548;DHT22;1788;49.400;11.092;2022-12-18T00:52:58;-7.10;49.70
3548;DHT22;1788;49.400;11.092;2022-12-18T00:55:25;-7.10;49.70
3548;DHT22;1788;49.400;11.092;2022-12-18T00:57:52;-7.10;49.70
3548;DHT22;1788;49.400;11.092;2022-12-18T01:00:19;-7.10;49.70
3548;DHT22;1788;49.400;11.092;2022-12-18T01:02:46;-7.10;49.70
3548;DHT22;1788;49.400;11.092;2022-12-18T01:05:13;-7.10;49.60
3548;DHT22;1788;49.400;11.092;2022-12-18T01:07:40;-7.10;49.60
3548;DHT22;1788;49.400;11.092;2022-12-18T01:10:08;-7.20;49.60
3548;DHT22;1788;49.400;11.092;2022-12-18T01:12:34;-7.20;49.60
3548;DHT22;1788;49.400;11.092;2022-12-18T01:15:02;-7.20;49.70
3548;DHT22;1788;49.400;11.092;2022-12-18T01:17:28;-7.20;49.70
3548;DHT22;1788;49.400;11.092;2022-12-18T01:19:55;-7.20;49.70
3548;DHT22;1788;49.400;11.092;2022-12-18T01:22:22;-7.20;49.60
3548;DHT22;1788;49.400;11.092;2022-12-18T01:24:49;-7.20;49.60
3548;DHT22;1788;49.400;11.092;2022-12-18T01:27:16;-7.20;49.50
3548;DHT22;1788;49.400;11.092;2022-12-18T01:29:42;-7.20;50.00
3548;DHT22;1788;49.400;11.092;2022-12-18T01:32:10;-7.30;49.40
3548;DHT22;1788;49.400;11.092;2022-12-18T01:34:36;-7.30;49.40
3548;DHT22;1788;49.400;11.092;2022-12-18T01:37:04;-7.30;49.40
3548;DHT22;1788;49.400;11.092;2022-12-18T01:39:30;-7.30;49.40
3548;DHT22;1788;49.400;11.092;2022-12-18T01:41:56;-7.30;49.40
3548;DHT22;1788;49.400;11.092;2022-12-18T01:46:49;-7.30;49.40
3548;DHT22;1788;49.400;11.092;2022-12-18T01:49:16;-7.40;49.40
3548;DHT22;1788;49.400;11.092;2022-12-18T01:51:43;-7.30;49.40
3548;DHT22;1788;49.400;11.092;2022-12-18T01:54:10;-7.30;49.60
3548;DHT22;1788;49.400;11.092;2022-12-18T01:56:37;-7.30;49.60
3548;DHT22;1788;49.400;11.092;2022-12-18T02:01:31;-7.30;49.60
3548;DHT22;1788;49.400;11.092;2022-12-18T02:11:21;-7.00;50.10
3548;DHT22;1788;49.400;11.092;2022-12-18T02:18:40;-6.70;50.40
3548;DHT22;1788;49.400;11.092;2022-12-18T02:21:08;-6.70;50.40
3548;DHT22;1788;49.400;11.092;2022-12-18T02:28:26;-6.30;50.80
3548;DHT22;1788;49.400;11.092;2022-12-18T02:30:52;-6.20;50.90
3548;DHT22;1788;49.400;11.092;2022-12-18T02:33:20;-5.90;51.20
3548;DHT22;1788;49.400;11.092;2022-12-18T02:35:46;-5.90;51.20
3548;DHT22;1788;49.400;11.092;2022-12-18T02:38:13;-5.60;51.50
3548;DHT22;1788;49.400;11.092;2022-12-18T02:40:40;-5.60;51.50
3548;DHT22;1788;49.400;11.092;2022-12-18T02:45:34;-5.40;51.60
3548;DHT22;1788;49.400;11.092;2022-12-18T02:48:01;-5.10;51.90
3548;DHT22;1788;49.400;11.092;2022-12-18T02:50:30;-5.10;51.90
3548;DHT22;1788;49.400;11.092;2022-12-18T02:53:00;-4.90;52.10
3548;DHT22;1788;49.400;11.092;2022-12-18T03:00:18;-4.70;52.30
3548;DHT22;1788;49.400;11.092;2022-12-18T03:05:12;-4.40;52.50
3548;DHT22;1788;49.400;11.092;2022-12-18T03:07:41;-4.20;53.40
3548;DHT22;1788;49.400;11.092;2022-12-18T03:10:05;-4.30;52.70
3548;DHT22;1788;49.400;11.092;2022-12-18T03:12:32;-4.10;52.80
3548;DHT22;1788;49.400;11.092;2022-12-18T03:17:26;-4.00;52.90
3548;DHT22;1788;49.400;11.092;2022-12-18T03:19:52;-3.90;52.90
3548;DHT22;1788;49.400;11.092;2022-12-18T03:22:18;-3.80;53.10
3548;DHT22;1788;49.400;11.092;2022-12-18T03:24:45;-3.80;53.10
3548;DHT22;1788;49.400;11.092;2022-12-18T03:27:12;-3.70;53.20
3548;DHT22;1788;49.400;11.092;2022-12-18T03:29:40;-3.60;53.30
3548;DHT22;1788;49.400;11.092;2022-12-18T03:32:06;-3.60;53.30
3548;DHT22;1788;49.400;11.092;2022-12-18T03:34:32;-3.50;53.40
3548;DHT22;1788;49.400;11.092;2022-12-18T03:36:58;-3.50;53.40
3548;DHT22;1788;49.400;11.092;2022-12-18T03:39:24;-3.40;53.50
3548;DHT22;1788;49.400;11.092;2022-12-18T03:41:53;-3.30;53.60
3548;DHT22;1788;49.400;11.092;2022-12-18T03:44:20;-3.30;53.60
3548;DHT22;1788;49.400;11.092;2022-12-18T03:54:04;-3.10;53.60
3548;DHT22;1788;49.400;11.092;2022-12-18T03:56:33;-3.00;53.80
3548;DHT22;1788;49.400;11.092;2022-12-18T03:58:58;-3.00;53.70
3548;DHT22;1788;49.400;11.092;2022-12-18T04:01:29;-3.00;54.30
3548;DHT22;1788;49.400;11.092;2022-12-18T04:03:52;-3.00;53.70
3548;DHT22;1788;49.400;11.092;2022-12-18T04:06:19;-2.90;53.90
3548;DHT22;1788;49.400;11.092;2022-12-18T04:08:46;-2.90;53.80
3548;DHT22;1788;49.400;11.092;2022-12-18T04:11:14;-2.80;54.10
3548;DHT22;1788;49.400;11.092;2022-12-18T04:13:41;-2.80;53.90
3548;DHT22;1788;49.400;11.092;2022-12-18T04:16:07;-2.90;53.80
3548;DHT22;1788;49.400;11.092;2022-12-18T04:18:34;-2.80;53.90
3548;DHT22;1788;49.400;11.092;2022-12-18T04:21:01;-2.80;54.00
3548;DHT22;1788;49.400;11.092;2022-12-18T04:23:27;-2.80;54.00
3548;DHT22;1788;49.400;11.092;2022-12-18T04:25:54;-2.80;54.10
3548;DHT22;1788;49.400;11.092;2022-12-18T04:28:21;-2.80;54.10
3548;DHT22;1788;49.400;11.092;2022-12-18T04:30:48;-2.70;54.20
3548;DHT22;1788;49.400;11.092;2022-12-18T04:33:15;-2.70;54.10
3548;DHT22;1788;49.400;11.092;2022-12-18T04:35:41;-2.70;54.20
3548;DHT22;1788;49.400;11.092;2022-12-18T04:38:08;-2.70;54.60
3548;DHT22;1788;49.400;11.092;2022-12-18T04:40:35;-2.70;54.30
3548;DHT22;1788;49.400;11.092;2022-12-18T04:43:01;-2.60;54.40
3548;DHT22;1788;49.400;11.092;2022-12-18T04:45:29;-2.60;54.40
3548;DHT22;1788;49.400;11.092;2022-12-18T04:47:56;-2.60;54.30
3548;DHT22;1788;49.400;11.092;2022-12-18T04:50:22;-2.50;54.50
3548;DHT22;1788;49.400;11.092;2022-12-18T04:52:49;-2.50;54.50
3548;DHT22;1788;49.400;11.092;2022-12-18T04:55:16;-2.50;54.50
3548;DHT22;1788;49.400;11.092;2022-12-18T04:57:43;-2.50;54.50
3548;DHT22;1788;49.400;11.092;2022-12-18T05:00:10;-2.40;54.60
3548;DHT22;1788;49.400;11.092;2022-12-18T05:02:37;-2.40;54.60
3548;DHT22;1788;49.400;11.092;2022-12-18T05:05:04;-2.40;54.60
3548;DHT22;1788;49.400;11.092;2022-12-18T05:07:31;-2.40;54.60
3548;DHT22;1788;49.400;11.092;2022-12-18T05:09:58;-2.30;54.60
3548;DHT22;1788;49.400;11.092;2022-12-18T05:12:25;-2.40;54.60
3548;DHT22;1788;49.400;11.092;2022-12-18T05:14:52;-2.30;54.70
3548;DHT22;1788;49.400;11.092;2022-12-18T05:17:19;-2.30;54.60
3548;DHT22;1788;49.400;11.092;2022-12-18T05:19:46;-2.20;54.80
3548;DHT22;1788;49.400;11.092;2022-12-18T05:22:13;-2.30;54.80
3548;DHT22;1788;49.400;11.092;2022-12-18T05:24:41;-2.20;54.80
3548;DHT22;1788;49.400;11.092;2022-12-18T05:27:07;-2.20;54.80
3548;DHT22;1788;49.400;11.092;2022-12-18T05:29:34;-2.20;54.80
3548;DHT22;1788;49.400;11.092;2022-12-18T05:32:01;-2.20;54.90
3548;DHT22;1788;49.400;11.092;2022-12-18T05:34:27;-2.20;55.00
3548;DHT22;1788;49.400;11.092;2022-12-18T05:45:31;-2.10;55.10
3548;DHT22;1788;49.400;11.092;2022-12-18T06:05:03;-1.90;55.40
3548;DHT22;1788;49.400;11.092;2022-12-18T06:10:31;-1.80;55.60
3548;DHT22;1788;49.400;11.092;2022-12-18T06:13:25;-1.80;55.80
3548;DHT22;1788;49.400;11.092;2022-12-18T06:30:15;-1.60;56.00
3548;DHT22;1788;49.400;11.092;2022-12-18T06:38:15;-1.60;56.10
3548;DHT22;1788;49.400;11.092;2022-12-18T06:40:57;-1.50;56.30
3548;DHT22;1788;49.400;11.092;2022-12-18T06:43:47;-1.50;56.30
3548;DHT22;1788;49.400;11.092;2022-12-18T06:57:33;-1.50;56.30
3548;DHT22;1788;49.400;11.092;2022-12-18T07:03:01;-1.50;56.60
3548;DHT22;1788;49.400;11.092;2022-12-18T07:05:47;-1.50;56.60
3548;DHT22;1788;49.400;11.092;2022-12-18T07:11:20;-1.50;56.80
3548;DHT22;1788;49.400;11.092;2022-12-18T07:22:19;-1.50;57.10
3548;DHT22;1788;49.400;11.092;2022-12-18T07:25:11;-1.50;57.20
3548;DHT22;1788;49.400;11.092;2022-12-18T07:30:50;-1.50;57.30
3548;DHT22;1788;49.400;11.092;2022-12-18T07:33:24;-1.40;57.40
3548;DHT22;1788;49.400;11.092;2022-12-18T07:38:47;-1.30;57.50
3548;DHT22;1788;49.400;11.092;2022-12-18T07:41:36;-1.20;57.50
3548;DHT22;1788;49.400;11.092;2022-12-18T08:01:07;-1.10;57.60
3548;DHT22;1788;49.400;11.092;2022-12-18T08:06:49;-1.00;57.70
3548;DHT22;1788;49.400;11.092;2022-12-18T08:26:34;-0.80;58.10
3548;DHT22;1788;49.400;11.092;2022-12-18T08:48:53;-0.70;58.10
3548;DHT22;1788;49.400;11.092;2022-12-18T08:51:31;-0.80;58.00
3548;DHT22;1788;49.400;11.092;2022-12-18T08:59:51;-0.80;58.30
3548;DHT22;1788;49.400;11.092;2022-12-18T09:10:58;-0.70;58.70
3548;DHT22;1788;49.400;11.092;2022-12-18T09:19:14;0.00;60.80
3548;DHT22;1788;49.400;11.092;2022-12-18T09:33:10;0.00;58.70
3548;DHT22;1788;49.400;11.092;2022-12-18T09:44:29;-0.20;58.90
3548;DHT22;1788;49.400;11.092;2022-12-18T09:55:30;-0.10;59.40
3548;DHT22;1788;49.400;11.092;2022-12-18T09:58:12;0.00;59.40
3548;DHT22;1788;49.400;11.092;2022-12-18T10:03:41;0.10;59.00
3548;DHT22;1788;49.400;11.092;2022-12-18T10:06:41;0.20;59.00
3548;DHT22;1788;49.400;11.092;2022-12-18T10:14:09;0.20;58.70
3548;DHT22;1788;49.400;11.092;2022-12-18T10:19:01;0.30;58.90
3548;DHT22;1788;49.400;11.092;2022-12-18T10:26:22;0.50;59.00
3548;DHT22;1788;49.400;11.092;2022-12-18T10:28:48;0.40;58.90
3548;DHT22;1788;49.400;11.092;2022-12-18T10:33:41;0.70;59.00
3548;DHT22;1788;49.400;11.092;2022-12-18T10:36:08;0.80;58.90
3548;DHT22;1788;49.400;11.092;2022-12-18T10:38:35;0.90;58.90
3548;DHT22;1788;49.400;11.092;2022-12-18T10:41:03;1.00;58.90
3548;DHT22;1788;49.400;11.092;2022-12-18T10:48:22;1.20;58.30
3548;DHT22;1788;49.400;11.092;2022-12-18T10:50:49;1.20;58.10
3548;DHT22;1788;49.400;11.092;2022-12-18T10:55:44;1.20;58.00
3548;DHT22;1788;49.400;11.092;2022-12-18T11:00:37;1.20;58.10
3548;DHT22;1788;49.400;11.092;2022-12-18T11:03:07;1.20;58.00
3548;DHT22;1788;49.400;11.092;2022-12-18T11:05:31;1.20;57.90
3548;DHT22;1788;49.400;11.092;2022-12-18T11:07:57;1.20;57.70
3548;DHT22;1788;49.400;11.092;2022-12-18T11:12:51;1.00;57.50
3548;DHT22;1788;49.400;11.092;2022-12-18T11:15:19;0.90;57.40
3548;DHT22;1788;49.400;11.092;2022-12-18T11:17:45;1.00;57.60
3548;DHT22;1788;49.400;11.092;2022-12-18T11:22:39;1.00;57.70
3548;DHT22;1788;49.400;11.092;2022-12-18T11:25:06;1.00;57.70
3548;DHT22;1788;49.400;11.092;2022-12-18T11:27:33;1.10;57.50
3548;DHT22;1788;49.400;11.092;2022-12-18T11:32:29;1.20;57.60
3548;DHT22;1788;49.400;11.092;2022-12-18T11:37:21;1.50;57.90
3548;DHT22;1788;49.400;11.092;2022-12-18T11:44:43;2.80;57.50
3548;DHT22;1788;49.400;11.092;2022-12-18T11:49:35;4.20;56.10
3548;DHT22;1788;49.400;11.092;2022-12-18T11:52:08;5.10;54.50
3548;DHT22;1788;49.400;11.092;2022-12-18T11:54:29;5.10;54.40
3548;DHT22;1788;49.400;11.092;2022-12-18T11:56:58;5.50;54.20
3548;DHT22;1788;49.400;11.092;2022-12-18T12:16:34;4.30;54.60
3548;DHT22;1788;49.400;11.092;2022-12-18T12:19:02;4.10;54.80
3548;DHT22;1788;49.400;11.092;2022-12-18T12:26:23;3.40;54.30
3548;DHT22;1788;49.400;11.092;2022-12-18T12:28:51;3.40;54.30
3548;DHT22;1788;49.400;11.092;2022-12-18T12:33:42;3.00;54.20
3548;DHT22;1788;49.400;11.092;2022-12-18T12:41:01;2.40;54.10
3548;DHT22;1788;49.400;11.092;2022-12-18T12:50:46;1.80;54.60
3548;DHT22;1788;49.400;11.092;2022-12-18T12:53:17;1.70;54.80
3548;DHT22;1788;49.400;11.092;2022-12-18T12:55:40;1.70;55.00
3548;DHT22;1788;49.400;11.092;2022-12-18T12:58:13;1.50;54.80
3548;DHT22;1788;49.400;11.092;2022-12-18T13:00:38;1.60;54.90
3548;DHT22;1788;49.400;11.092;2022-12-18T13:10:23;1.50;55.20
3548;DHT22;1788;49.400;11.092;2022-12-18T13:15:20;1.40;55.10
3548;DHT22;1788;49.400;11.092;2022-12-18T13:17:40;1.40;55.20
3548;DHT22;1788;49.400;11.092;2022-12-18T13:20:08;1.40;55.10
3548;DHT22;1788;49.400;11.092;2022-12-18T13:22:35;1.40;55.20
3548;DHT22;1788;49.400;11.092;2022-12-18T13:25:00;1.40;55.20
3548;DHT22;1788;49.400;11.092;2022-12-18T13:29:53;1.40;55.20
3548;DHT22;1788;49.400;11.092;2022-12-18T13:34:47;1.30;55.10
3548;DHT22;1788;49.400;11.092;2022-12-18T13:39:40;1.20;55.20
3548;DHT22;1788;49.400;11.092;2022-12-18T13:47:01;1.20;55.30
3548;DHT22;1788;49.400;11.092;2022-12-18T13:51:55;1.00;55.20
3548;DHT22;1788;49.400;11.092;2022-12-18T13:56:48;1.00;55.50
3548;DHT22;1788;49.400;11.092;2022-12-18T13:59:15;0.90;55.60
3548;DHT22;1788;49.400;11.092;2022-12-18T14:01:42;1.00;55.70
3548;DHT22;1788;49.400;11.092;2022-12-18T14:06:34;0.90;55.50
3548;DHT22;1788;49.400;11.092;2022-12-18T14:09:01;0.80;55.50
3548;DHT22;1788;49.400;11.092;2022-12-18T14:11:27;0.80;55.60
3548;DHT22;1788;49.400;11.092;2022-12-18T14:13:54;0.80;55.70
3548;DHT22;1788;49.400;11.092;2022-12-18T14:16:20;0.80;55.70
3548;DHT22;1788;49.400;11.092;2022-12-18T14:23:41;0.70;55.60
3548;DHT22;1788;49.400;11.092;2022-12-18T14:28:42;0.60;56.10
3548;DHT22;1788;49.400;11.092;2022-12-18T14:31:01;0.60;55.80
3548;DHT22;1788;49.400;11.092;2022-12-18T14:33:27;0.60;55.90
3548;DHT22;1788;49.400;11.092;2022-12-18T14:40:51;0.50;55.80
3548;DHT22;1788;49.400;11.092;2022-12-18T14:43:15;0.50;55.80
3548;DHT22;1788;49.400;11.092;2022-12-18T14:45:42;0.50;55.80
3548;DHT22;1788;49.400;11.092;2022-12-18T14:50:35;0.40;55.80
3548;DHT22;1788;49.400;11.092;2022-12-18T14:53:03;0.30;55.90
3548;DHT22;1788;49.400;11.092;2022-12-18T14:55:29;0.30;55.90
3548;DHT22;1788;49.400;11.092;2022-12-18T14:57:56;0.30;55.90
3548;DHT22;1788;49.400;11.092;2022-12-18T15:00:23;0.20;55.90
3548;DHT22;1788;49.400;11.092;2022-12-18T15:02:50;0.20;56.00
3548;DHT22;1788;49.400;11.092;2022-12-18T15:05:17;0.10;56.00
3548;DHT22;1788;49.400;11.092;2022-12-18T15:07:43;0.10;56.10
3548;DHT22;1788;49.400;11.092;2022-12-18T15:10:10;0.00;56.10
3548;DHT22;1788;49.400;11.092;2022-12-18T15:15:03;-0.10;56.20
3548;DHT22;1788;49.400;11.092;2022-12-18T15:17:30;-0.10;56.10
3548;DHT22;1788;49.400;11.092;2022-12-18T15:24:51;-0.20;56.30
3548;DHT22;1788;49.400;11.092;2022-12-18T15:29:58;-0.30;56.30
3548;DHT22;1788;49.400;11.092;2022-12-18T15:34:39;-0.30;56.40
3548;DHT22;1788;49.400;11.092;2022-12-18T15:37:07;-0.40;56.30
3548;DHT22;1788;49.400;11.092;2022-12-18T15:39:33;-0.40;56.30
3548;DHT22;1788;49.400;11.092;2022-12-18T15:42:00;-0.40;56.30
3548;DHT22;1788;49.400;11.092;2022-12-18T15:44:26;-0.40;56.40
3548;DHT22;1788;49.400;11.092;2022-12-18T15:46:53;-0.40;56.50
3548;DHT22;1788;49.400;11.092;2022-12-18T15:49:20;-0.50;56.40
3548;DHT22;1788;49.400;11.092;2022-12-18T15:51:49;-0.50;56.50
3548;DHT22;1788;49.400;11.092;2022-12-18T15:54:14;-0.50;56.50
3548;DHT22;1788;49.400;11.092;2022-12-18T16:01:35;-0.50;56.50
3548;DHT22;1788;49.400;11.092;2022-12-18T16:04:03;-0.60;56.60
3548;DHT22;1788;49.400;11.092;2022-12-18T16:06:29;-0.60;56.60
3548;DHT22;1788;49.400;11.092;2022-12-18T16:08:57;-0.60;56.70
3548;DHT22;1788;49.400;11.092;2022-12-18T16:13:51;-0.60;56.80
3548;DHT22;1788;49.400;11.092;2022-12-18T16:16:17;-0.70;56.70
3548;DHT22;1788;49.400;11.092;2022-12-18T16:18:45;-0.70;56.70
3548;DHT22;1788;49.400;11.092;2022-12-18T16:21:11;-0.70;56.70
3548;DHT22;1788;49.400;11.092;2022-12-18T16:23:38;-0.70;56.70
3548;DHT22;1788;49.400;11.092;2022-12-18T16:26:05;-0.70;56.70
3548;DHT22;1788;49.400;11.092;2022-12-18T16:28:31;-0.60;56.80
3548;DHT22;1788;49.400;11.092;2022-12-18T16:30:58;-0.70;56.70
3548;DHT22;1788;49.400;11.092;2022-12-18T16:33:25;-0.70;56.70
3548;DHT22;1788;49.400;11.092;2022-12-18T16:35:52;-0.70;56.70
3548;DHT22;1788;49.400;11.092;2022-12-18T16:38:18;-0.70;56.70
3548;DHT22;1788;49.400;11.092;2022-12-18T16:40:45;-0.70;56.70
3548;DHT22;1788;49.400;11.092;2022-12-18T16:43:12;-0.70;56.70
3548;DHT22;1788;49.400;11.092;2022-12-18T16:45:38;-0.70;56.70
3548;DHT22;1788;49.400;11.092;2022-12-18T16:48:05;-0.70;56.70
3548;DHT22;1788;49.400;11.092;2022-12-18T16:50:32;-0.70;56.80
3548;DHT22;1788;49.400;11.092;2022-12-18T16:52:58;-0.80;56.80
3548;DHT22;1788;49.400;11.092;2022-12-18T16:55:25;-0.80;56.80
3548;DHT22;1788;49.400;11.092;2022-12-18T16:57:52;-0.80;56.80
3548;DHT22;1788;49.400;11.092;2022-12-18T17:00:19;-0.80;56.80
3548;DHT22;1788;49.400;11.092;2022-12-18T17:02:46;-0.90;56.80
3548;DHT22;1788;49.400;11.092;2022-12-18T17:05:13;-0.90;56.80
3548;DHT22;1788;49.400;11.092;2022-12-18T17:07:40;-0.90;57.50
3548;DHT22;1788;49.400;11.092;2022-12-18T17:10:07;-0.90;57.00
3548;DHT22;1788;49.400;11.092;2022-12-18T17:12:33;-0.90;56.90
3548;DHT22;1788;49.400;11.092;2022-12-18T17:15:00;-0.90;57.40
3548;DHT22;1788;49.400;11.092;2022-12-18T17:17:26;-0.90;56.80
3548;DHT22;1788;49.400;11.092;2022-12-18T17:19:53;-0.90;56.90
3548;DHT22;1788;49.400;11.092;2022-12-18T17:22:21;-1.00;57.00
3548;DHT22;1788;49.400;11.092;2022-12-18T17:24:47;-1.00;56.90
3548;DHT22;1788;49.400;11.092;2022-12-18T17:27:14;-1.00;57.00
3548;DHT22;1788;49.400;11.092;2022-12-18T17:29:41;-1.00;57.00
3548;DHT22;1788;49.400;11.092;2022-12-18T17:32:08;-1.00;57.00
3548;DHT22;1788;49.400;11.092;2022-12-18T17:34:35;-1.10;56.90
3548;DHT22;1788;49.400;11.092;2022-12-18T17:37:02;-1.10;57.00
3548;DHT22;1788;49.400;11.092;2022-12-18T17:39:29;-1.10;57.00
3548;DHT22;1788;49.400;11.092;2022-12-18T17:41:56;-1.10;57.10
3548;DHT22;1788;49.400;11.092;2022-12-18T17:44:23;-1.20;57.00
3548;DHT22;1788;49.400;11.092;2022-12-18T17:46:50;-1.10;57.20
3548;DHT22;1788;49.400;11.092;2022-12-18T17:49:17;-1.20;57.10
3548;DHT22;1788;49.400;11.092;2022-12-18T17:51:44;-1.20;57.10
3548;DHT22;1788;49.400;11.092;2022-12-18T17:54:10;-1.20;57.20
3548;DHT22;1788;49.400;11.092;2022-12-18T17:56:37;-1.20;57.20
3548;DHT22;1788;49.400;11.092;2022-12-18T17:59:03;-1.20;57.20
3548;DHT22;1788;49.400;11.092;2022-12-18T18:01:31;-1.20;57.30
3548;DHT22;1788;49.400;11.092;2022-12-18T18:03:57;-1.20;57.30
3548;DHT22;1788;49.400;11.092;2022-12-18T18:06:24;-1.20;57.30
3548;DHT22;1788;49.400;11.092;2022-12-18T18:08:52;-1.20;57.30
3548;DHT22;1788;49.400;11.092;2022-12-18T18:11:18;-1.20;57.30
3548;DHT22;1788;49.400;11.092;2022-12-18T18:13:44;-1.20;57.40
3548;DHT22;1788;49.400;11.092;2022-12-18T18:16:11;-1.20;57.50
3548;DHT22;1788;49.400;11.092;2022-12-18T18:18:38;-1.20;57.40
3548;DHT22;1788;49.400;11.092;2022-12-18T18:21:05;-1.20;57.40
3548;DHT22;1788;49.400;11.092;2022-12-18T18:23:33;-1.20;57.40
3548;DHT22;1788;49.400;11.092;2022-12-18T18:28:25;-1.20;57.30
3548;DHT22;1788;49.400;11.092;2022-12-18T18:30:52;-1.20;57.40
3548;DHT22;1788;49.400;11.092;2022-12-18T18:33:19;-1.20;57.40
3548;DHT22;1788;49.400;11.092;2022-12-18T18:35:45;-1.20;57.40
3548;DHT22;1788;49.400;11.092;2022-12-18T18:38:12;-1.20;57.50
3548;DHT22;1788;49.400;11.092;2022-12-18T18:40:38;-1.20;57.90
3548;DHT22;1788;49.400;11.092;2022-12-18T18:43:05;-1.20;57.60
3548;DHT22;1788;49.400;11.092;2022-12-18T18:45:32;-1.20;57.60
3548;DHT22;1788;49.400;11.092;2022-12-18T18:47:58;-1.20;57.60
3548;DHT22;1788;49.400;11.092;2022-12-18T18:50:26;-0.50;59.20
3548;DHT22;1788;49.400;11.092;2022-12-18T18:52:52;-0.50;58.90
3548;DHT22;1788;49.400;11.092;2022-12-18T18:55:20;-0.30;58.00
3548;DHT22;1788;49.400;11.092;2022-12-18T18:57:46;-0.30;58.00
3548;DHT22;1788;49.400;11.092;2022-12-18T19:00:14;-0.30;57.60
3548;DHT22;1788;49.400;11.092;2022-12-18T19:02:40;-0.30;57.60
3548;DHT22;1788;49.400;11.092;2022-12-18T19:05:08;-0.40;57.50
3548;DHT22;1788;49.400;11.092;2022-12-18T19:07:34;-0.40;57.50
3548;DHT22;1788;49.400;11.092;2022-12-18T19:10:01;-0.40;57.50
3548;DHT22;1788;49.400;11.092;2022-12-18T19:12:27;-0.40;57.50
3548;DHT22;1788;49.400;11.092;2022-12-18T19:14:54;-0.40;57.50
3548;DHT22;1788;49.400;11.092;2022-12-18T19:17:21;-0.40;57.60
3548;DHT22;1788;49.400;11.092;2022-12-18T19:19:49;-0.50;57.50
3548;DHT22;1788;49.400;11.092;2022-12-18T19:22:14;-0.40;57.60
3548;DHT22;1788;49.400;11.092;2022-12-18T19:24:41;-0.40;57.50
3548;DHT22;1788;49.400;11.092;2022-12-18T19:27:07;-0.40;57.50
3548;DHT22;1788;49.400;11.092;2022-12-18T19:29:34;-0.50;57.40
3548;DHT22;1788;49.400;11.092;2022-12-18T19:32:00;-0.50;57.40
3548;DHT22;1788;49.400;11.092;2022-12-18T19:34:27;-0.50;57.60
3548;DHT22;1788;49.400;11.092;2022-12-18T19:36:54;-0.40;57.70
3548;DHT22;1788;49.400;11.092;2022-12-18T19:39:21;-0.40;57.60
3548;DHT22;1788;49.400;11.092;2022-12-18T19:41:49;-0.40;57.60
3548;DHT22;1788;49.400;11.092;2022-12-18T19:44:15;-0.40;57.70
3548;DHT22;1788;49.400;11.092;2022-12-18T19:46:42;-0.40;57.70
3548;DHT22;1788;49.400;11.092;2022-12-18T19:49:09;-0.40;57.60
3548;DHT22;1788;49.400;11.092;2022-12-18T19:51:35;-0.40;57.50
3548;DHT22;1788;49.400;11.092;2022-12-18T19:54:02;-0.40;57.50
3548;DHT22;1788;49.400;11.092;2022-12-18T19:56:30;-0.50;57.50
3548;DHT22;1788;49.400;11.092;2022-12-18T19:58:55;-0.50;57.50
3548;DHT22;1788;49.400;11.092;2022-12-18T20:01:22;-0.50;57.60
3548;DHT22;1788;49.400;11.092;2022-12-18T20:03:49;-0.50;57.60
3548;DHT22;1788;49.400;11.092;2022-12-18T20:06:18;-0.50;57.60
3548;DHT22;1788;49.400;11.092;2022-12-18T20:08:43;-0.50;57.70
3548;DHT22;1788;49.400;11.092;2022-12-18T20:11:10;-0.50;57.60
3548;DHT22;1788;49.400;11.092;2022-12-18T20:13:37;-0.50;57.60
3548;DHT22;1788;49.400;11.092;2022-12-18T20:16:04;-0.50;57.60
3548;DHT22;1788;49.400;11.092;2022-12-18T20:18:31;-0.50;57.60
3548;DHT22;1788;49.400;11.092;2022-12-18T20:20:57;-0.50;57.60
3548;DHT22;1788;49.400;11.092;2022-12-18T20:23:24;-0.50;57.60
3548;DHT22;1788;49.400;11.092;2022-12-18T20:28:18;-0.50;57.70
3548;DHT22;1788;49.400;11.092;2022-12-18T20:30:44;-0.60;57.60
3548;DHT22;1788;49.400;11.092;2022-12-18T20:33:11;-0.50;57.70
3548;DHT22;1788;49.400;11.092;2022-12-18T20:35:38;-0.60;57.60
3548;DHT22;1788;49.400;11.092;2022-12-18T20:38:04;-0.60;57.60
3548;DHT22;1788;49.400;11.092;2022-12-18T20:40:31;-0.60;57.70
3548;DHT22;1788;49.400;11.092;2022-12-18T20:42:57;-0.60;57.60
3548;DHT22;1788;49.400;11.092;2022-12-18T20:45:24;-0.60;57.70
3548;DHT22;1788;49.400;11.092;2022-12-18T20:47:52;-0.60;57.70
3548;DHT22;1788;49.400;11.092;2022-12-18T20:50:17;-0.60;57.70
3548;DHT22;1788;49.400;11.092;2022-12-18T20:52:46;-0.60;57.70
3548;DHT22;1788;49.400;11.092;2022-12-18T20:55:11;-0.60;57.70
3548;DHT22;1788;49.400;11.092;2022-12-18T20:57:38;-0.70;57.60
3548;DHT22;1788;49.400;11.092;2022-12-18T21:00:05;-0.70;57.70
3548;DHT22;1788;49.400;11.092;2022-12-18T21:02:31;-0.70;57.80
3548;DHT22;1788;49.400;11.092;2022-12-18T21:04:58;-0.70;58.30
3548;DHT22;1788;49.400;11.092;2022-12-18T21:07:25;-0.70;57.80
3548;DHT22;1788;49.400;11.092;2022-12-18T21:09:52;-0.70;57.90
3548;DHT22;1788;49.400;11.092;2022-12-18T21:12:19;-0.70;58.10
3548;DHT22;1788;49.400;11.092;2022-12-18T21:14:46;-0.80;57.80
3548;DHT22;1788;49.400;11.092;2022-12-18T21:17:13;-0.70;57.90
3548;DHT22;1788;49.400;11.092;2022-12-18T21:19:40;-0.80;57.90
3548;DHT22;1788;49.400;11.092;2022-12-18T21:22:07;-0.70;57.90
3548;DHT22;1788;49.400;11.092;2022-12-18T21:24:33;-0.70;57.90
3548;DHT22;1788;49.400;11.092;2022-12-18T21:27:00;-0.70;57.90
3548;DHT22;1788;49.400;11.092;2022-12-18T21:29:27;-0.70;57.90
3548;DHT22;1788;49.400;11.092;2022-12-18T21:31:55;-0.70;58.00
3548;DHT22;1788;49.400;11.092;2022-12-18T21:34:22;-0.70;57.90
3548;DHT22;1788;49.400;11.092;2022-12-18T21:36:48;-0.70;57.90
3548;DHT22;1788;49.400;11.092;2022-12-18T21:39:15;-0.70;57.90
3548;DHT22;1788;49.400;11.092;2022-12-18T21:41:41;-0.70;57.90
3548;DHT22;1788;49.400;11.092;2022-12-18T21:44:09;-0.70;57.90
3548;DHT22;1788;49.400;11.092;2022-12-18T21:46:35;-0.70;57.90
3548;DHT22;1788;49.400;11.092;2022-12-18T21:49:01;-0.70;57.90
3548;DHT22;1788;49.400;11.092;2022-12-18T21:51:29;-0.80;57.70
3548;DHT22;1788;49.400;11.092;2022-12-18T21:53:55;-0.80;57.70
3548;DHT22;1788;49.400;11.092;2022-12-18T21:56:23;-0.80;57.80
3548;DHT22;1788;49.400;11.092;2022-12-18T21:58:49;-0.80;57.80
3548;DHT22;1788;49.400;11.092;2022-12-18T22:01:16;-0.80;57.90
3548;DHT22;1788;49.400;11.092;2022-12-18T22:03:44;-0.90;57.80
3548;DHT22;1788;49.400;11.092;2022-12-18T22:06:10;-0.90;57.90
3548;DHT22;1788;49.400;11.092;2022-12-18T22:08:37;-0.90;57.80
3548;DHT22;1788;49.400;11.092;2022-12-18T22:11:04;-0.90;57.90